createdAt,value
2023-03-06T00:01:30.941Z,38.38
2023-03-06T00:04:16.521Z,39.30
2023-03-06T00:07:02.344Z,32.00
2023-03-06T00:09:48.302Z,30.23
2023-03-06T00:12:34.297Z,33.10
2023-03-06T00:15:20.890Z,31.27
2023-03-06T00:18:07.528Z,34.80
2023-03-06T00:20:53.590Z,33.65
2023-03-06T00:23:41.489Z,29.38
2023-03-06T00:26:36.763Z,35.40
2023-03-06T00:29:23.869Z,41.35
2023-03-06T00:32:10.078Z,29.73
2023-03-06T00:34:56.311Z,28.77
2023-03-06T00:37:42.902Z,52.03
2023-03-06T00:40:29.033Z,44.47
2023-03-06T00:43:14.775Z,32.03
2023-03-06T00:46:00.929Z,25.75
2023-03-06T00:48:47.661Z,28.38
2023-03-06T00:51:38.480Z,27.92
2023-03-06T00:54:24.300Z,35.60
2023-03-06T00:57:10.078Z,33.28
2023-03-06T00:59:55.891Z,28.75
2023-03-06T01:02:41.744Z,28.10
2023-03-06T01:05:27.670Z,34.67
2023-03-06T01:08:13.435Z,34.53
2023-03-06T01:10:59.484Z,31.98
2023-03-06T01:13:45.271Z,28.77
2023-03-06T01:16:32.415Z,33.28
2023-03-06T01:19:18.474Z,30.85
2023-03-06T01:22:04.706Z,33.08
2023-03-06T01:24:50.662Z,30.08
2023-03-06T01:27:36.627Z,26.98
2023-03-06T01:30:22.559Z,30.45
2023-03-06T01:33:08.157Z,26.48
2023-03-06T01:35:53.902Z,29.35
2023-03-06T01:38:41.868Z,28.55
2023-03-06T01:41:28.004Z,33.83
2023-03-06T01:44:14.332Z,34.53
2023-03-06T01:47:02.354Z,34.42
2023-03-06T01:49:48.473Z,31.48
2023-03-06T01:52:38.799Z,31.95
2023-03-06T01:55:33.429Z,30.25
2023-03-06T01:58:19.802Z,33.40
2023-03-06T02:01:06.499Z,33.40
2023-03-06T02:03:52.391Z,30.92
2023-03-06T02:06:43.194Z,31.02
2023-03-06T02:09:31.025Z,31.17
2023-03-06T02:12:18.877Z,31.88
2023-03-06T02:15:05.301Z,29.95
2023-03-06T02:17:51.938Z,32.97
2023-03-06T02:20:43.915Z,33.20
2023-03-06T02:23:41.092Z,32.65
2023-03-06T02:26:28.377Z,35.42
2023-03-06T02:29:18.145Z,31.17
2023-03-06T02:32:05.026Z,33.65
2023-03-06T02:34:54.367Z,29.60
2023-03-06T02:37:40.528Z,30.23
2023-03-06T02:40:26.429Z,29.33
2023-03-06T02:43:13.603Z,31.02
2023-03-06T02:45:59.533Z,31.42
2023-03-06T02:48:47.500Z,31.42
2023-03-06T02:51:34.244Z,32.50
2023-03-06T02:54:20.552Z,32.53
2023-03-06T02:57:06.354Z,31.88
2023-03-06T02:59:53.151Z,28.15
2023-03-06T03:02:39.409Z,31.58
2023-03-06T03:05:25.300Z,30.88
2023-03-06T03:08:18.335Z,31.10
2023-03-06T03:11:04.974Z,29.42
2023-03-06T03:13:57.836Z,33.20
2023-03-06T03:16:46.658Z,31.05
2023-03-06T03:19:32.624Z,29.98
2023-03-06T03:22:19.197Z,27.13
2023-03-06T03:25:05.447Z,28.50
2023-03-06T03:27:51.581Z,26.90
2023-03-06T03:30:40.047Z,28.27
2023-03-06T03:33:28.527Z,29.27
2023-03-06T03:36:14.700Z,31.50
2023-03-06T03:39:05.880Z,30.60
2023-03-06T03:41:52.062Z,27.52
2023-03-06T03:44:39.879Z,31.35
2023-03-06T03:47:26.180Z,31.23
2023-03-06T03:50:14.384Z,28.63
2023-03-06T03:53:01.041Z,33.90
2023-03-06T03:55:48.811Z,23.80
2023-03-06T03:58:37.408Z,33.05
2023-03-06T04:01:27.803Z,27.73
2023-03-06T04:04:14.173Z,32.25
2023-03-06T04:07:02.254Z,27.50
2023-03-06T04:09:48.162Z,34.47
2023-03-06T04:12:34.984Z,33.30
2023-03-06T04:15:21.109Z,30.38
2023-03-06T04:18:08.117Z,30.70
2023-03-06T04:20:55.002Z,31.20
2023-03-06T04:23:40.899Z,31.83
2023-03-06T04:26:27.371Z,32.60
2023-03-06T04:29:13.141Z,28.50
2023-03-06T04:31:59.211Z,31.52
2023-03-06T04:34:45.474Z,29.10
2023-03-06T04:37:31.616Z,31.08
2023-03-06T04:40:21.915Z,29.75
2023-03-06T04:43:07.750Z,36.55
2023-03-06T04:45:53.345Z,30.27
2023-03-06T04:48:39.129Z,31.42
2023-03-06T04:51:24.814Z,31.50
2023-03-06T04:54:10.562Z,32.97
2023-03-06T04:56:56.286Z,41.00
2023-03-06T04:59:42.933Z,36.22
2023-03-06T05:02:28.706Z,34.10
2023-03-06T05:05:15.008Z,30.30
2023-03-06T05:08:00.690Z,36.72
2023-03-06T05:10:46.667Z,39.13
2023-03-06T05:13:33.037Z,40.67
2023-03-06T05:16:19.109Z,42.22
2023-03-06T05:19:04.891Z,35.08
2023-03-06T05:21:50.492Z,38.10
2023-03-06T05:24:37.151Z,39.95
2023-03-06T05:27:22.953Z,32.70
2023-03-06T05:30:12.947Z,53.05
2023-03-06T05:32:59.742Z,44.00
2023-03-06T05:35:47.636Z,42.85
2023-03-06T05:38:33.533Z,43.90
2023-03-06T05:41:19.656Z,32.80
2023-03-06T05:44:05.494Z,40.22
2023-03-06T05:46:51.120Z,45.53
2023-03-06T05:49:37.282Z,47.30
2023-03-06T05:52:23.213Z,44.30
2023-03-06T05:55:11.683Z,38.28
2023-03-06T05:57:58.546Z,47.60
2023-03-06T06:00:44.570Z,35.47
2023-03-06T06:03:30.342Z,34.25
2023-03-06T06:06:16.400Z,59.53
2023-03-06T06:09:02.237Z,36.97
2023-03-06T06:11:51.525Z,33.15
2023-03-06T06:14:38.684Z,44.50
2023-03-06T06:17:24.522Z,44.33
2023-03-06T06:20:11.423Z,45.38
2023-03-06T06:22:57.433Z,54.42
2023-03-06T06:25:43.496Z,36.83
2023-03-06T06:28:33.771Z,40.35
2023-03-06T06:31:19.529Z,39.67
2023-03-06T06:34:10.978Z,40.33
2023-03-06T06:36:56.832Z,45.88
2023-03-06T06:39:42.557Z,40.35
2023-03-06T06:42:36.911Z,48.70
2023-03-06T06:45:24.215Z,35.42
2023-03-06T06:48:10.685Z,41.08
2023-03-06T06:50:58.119Z,66.55
2023-03-06T06:53:44.645Z,50.67
2023-03-06T06:56:30.743Z,41.35
2023-03-06T06:59:17.608Z,49.33
2023-03-06T07:02:03.935Z,45.78
2023-03-06T07:05:03.111Z,56.08
2023-03-06T07:07:51.397Z,48.13
2023-03-06T07:10:39.537Z,52.05
2023-03-06T07:13:25.265Z,51.90
2023-03-06T07:16:11.181Z,54.20
2023-03-06T07:18:57.212Z,46.45
2023-03-06T07:21:43.003Z,39.83
2023-03-06T07:24:29.053Z,39.42
2023-03-06T07:27:15.295Z,40.17
2023-03-06T07:30:01.339Z,39.60
2023-03-06T07:32:46.886Z,64.88
2023-03-06T07:35:32.754Z,49.55
2023-03-06T07:38:18.581Z,35.85
2023-03-06T07:41:08.366Z,45.72
2023-03-06T07:43:54.434Z,45.28
2023-03-06T07:46:41.269Z,37.30
2023-03-06T07:49:27.327Z,57.72
2023-03-06T07:52:13.878Z,41.97
2023-03-06T07:55:00.166Z,45.17
2023-03-06T07:57:45.912Z,48.90
2023-03-06T08:00:31.640Z,66.13
2023-03-06T08:03:17.327Z,70.32
2023-03-06T08:06:09.353Z,59.08
2023-03-06T08:08:55.833Z,66.88
2023-03-06T08:11:41.854Z,66.82
2023-03-06T08:14:27.661Z,58.92
2023-03-06T08:17:13.505Z,58.45
2023-03-06T08:19:59.514Z,67.80
2023-03-06T08:22:45.764Z,57.03
2023-03-06T08:25:31.841Z,66.85
2023-03-06T08:28:17.538Z,75.10
2023-03-06T08:31:31.508Z,61.15
2023-03-06T08:34:20.433Z,57.80
2023-03-06T08:37:06.335Z,48.60
2023-03-06T08:39:51.977Z,44.90
2023-03-06T08:42:37.681Z,50.95
2023-03-06T08:45:23.585Z,55.35
2023-03-06T08:48:09.309Z,59.22
2023-03-06T08:50:55.284Z,60.08
2023-03-06T08:53:43.662Z,80.63
2023-03-06T08:56:32.986Z,56.25
2023-03-06T08:59:18.961Z,52.20
2023-03-06T09:02:05.714Z,70.85
2023-03-06T09:04:51.610Z,59.72
2023-03-06T09:07:37.572Z,64.03
2023-03-06T09:10:25.478Z,51.67
2023-03-06T09:13:11.211Z,57.28
2023-03-06T09:15:57.065Z,68.88
2023-03-06T09:18:42.894Z,45.53
2023-03-06T09:21:28.742Z,48.40
2023-03-06T09:24:14.516Z,43.50
2023-03-06T09:27:00.523Z,38.03
2023-03-06T09:29:46.250Z,47.35
2023-03-06T09:32:31.991Z,73.80
2023-03-06T09:35:18.865Z,309.83
2023-03-06T09:38:04.484Z,90.90
2023-03-06T09:41:16.574Z,74.80
2023-03-06T09:44:05.938Z,47.80
2023-03-06T09:47:26.172Z,36.83
2023-03-06T09:50:47.776Z,37.28
2023-03-06T09:53:48.810Z,31.48
2023-03-06T09:56:35.985Z,36.10
2023-03-06T09:59:23.953Z,40.78
2023-03-06T10:02:25.970Z,36.40
2023-03-06T10:05:24.774Z,41.05
2023-03-06T10:08:25.918Z,37.50
2023-03-06T10:11:13.698Z,43.58
2023-03-06T10:14:22.824Z,43.78
2023-03-06T10:17:16.353Z,40.85
2023-03-06T10:20:16.051Z,45.63
2023-03-06T10:23:45.375Z,46.83
2023-03-06T10:26:40.632Z,35.05
2023-03-06T10:30:01.522Z,35.58
2023-03-06T10:32:56.226Z,33.10
2023-03-06T10:38:31.563Z,49.42
2023-03-06T10:41:35.954Z,44.13
2023-03-06T10:44:23.721Z,36.88
2023-03-06T10:47:29.070Z,32.03
2023-03-06T10:50:28.441Z,38.53
2023-03-06T10:53:26.539Z,37.10
2023-03-06T10:56:12.376Z,34.95
2023-03-06T10:59:11.749Z,38.25
2023-03-06T11:01:59.367Z,26.83
2023-03-06T11:04:47.896Z,24.85
2023-03-06T11:07:37.324Z,37.60
2023-03-06T11:10:24.561Z,27.90
2023-03-06T11:13:32.304Z,37.45
2023-03-06T11:16:25.999Z,25.67
2023-03-06T11:19:19.911Z,28.25
2023-03-06T11:22:17.229Z,20.40
2023-03-06T11:25:03.259Z,18.15
2023-03-06T11:28:22.848Z,24.77
2023-03-06T11:31:14.076Z,24.75
2023-03-06T11:34:12.178Z,22.33
2023-03-06T11:37:05.956Z,19.70
2023-03-06T11:40:15.805Z,13.27
2023-03-06T11:43:23.437Z,23.52
2023-03-06T11:46:21.580Z,17.00
2023-03-06T11:49:17.449Z,13.57
2023-03-06T11:52:07.459Z,15.07
2023-03-06T11:54:56.553Z,27.38
2023-03-06T11:58:04.555Z,17.77
2023-03-06T12:01:15.086Z,17.00
2023-03-06T12:04:07.298Z,18.73
2023-03-06T12:07:02.246Z,19.45
2023-03-06T12:10:08.442Z,24.52
2023-03-06T12:12:54.092Z,11.77
2023-03-06T12:15:58.663Z,17.15
2023-03-06T12:19:23.901Z,11.98
2023-03-06T12:22:22.161Z,17.98
2023-03-06T12:25:27.842Z,16.90
2023-03-06T12:28:38.494Z,14.63
2023-03-06T12:31:41.440Z,17.55
2023-03-06T12:34:37.131Z,29.52
2023-03-06T12:37:50.187Z,33.67
2023-03-06T12:41:00.702Z,69.20
2023-03-06T12:44:25.423Z,36.05
2023-03-06T12:50:09.747Z,25.60
2023-03-06T12:52:59.424Z,27.50
2023-03-06T12:55:47.654Z,41.00
2023-03-06T13:02:17.507Z,12.75
2023-03-06T13:05:12.811Z,9.90
2023-03-06T13:08:28.261Z,11.85
2023-03-06T13:11:41.634Z,14.70
2023-03-06T13:14:54.089Z,14.00
2023-03-06T13:17:41.065Z,12.57
2023-03-06T13:20:54.097Z,20.65
2023-03-06T13:23:51.702Z,24.30
2023-03-06T13:26:37.401Z,7.93
2023-03-06T13:29:38.477Z,8.15
2023-03-06T13:32:30.245Z,15.48
2023-03-06T13:35:34.226Z,19.20
2023-03-06T13:38:56.994Z,20.73
2023-03-06T13:42:04.233Z,9.48
2023-03-06T13:44:51.235Z,12.68
2023-03-06T13:48:19.520Z,8.77
2023-03-06T13:51:14.360Z,19.27
2023-03-06T13:54:37.775Z,12.73
2023-03-06T13:57:48.121Z,21.50
2023-03-06T14:00:49.462Z,17.30
2023-03-06T14:03:52.073Z,13.00
2023-03-06T14:06:41.096Z,14.52
2023-03-06T14:09:30.678Z,10.80
2023-03-06T14:12:24.261Z,10.73
2023-03-06T14:15:51.065Z,9.60
2023-03-06T14:18:42.109Z,11.77
2023-03-06T14:21:31.348Z,12.23
2023-03-06T14:24:19.510Z,22.75
2023-03-06T14:27:05.482Z,23.77
2023-03-06T14:29:51.485Z,14.75
2023-03-06T14:32:38.523Z,16.35
2023-03-06T14:35:27.694Z,11.98
2023-03-06T14:38:14.671Z,12.00
2023-03-06T14:41:01.277Z,11.45
2023-03-06T14:43:47.020Z,16.52
2023-03-06T14:46:32.640Z,14.65
2023-03-06T14:49:20.159Z,16.98
2023-03-06T14:52:18.354Z,20.05
2023-03-06T14:55:12.147Z,16.35
2023-03-06T14:58:10.420Z,13.75
2023-03-06T15:00:58.769Z,18.65
2023-03-06T15:03:50.241Z,27.65
2023-03-06T15:06:41.455Z,21.00
2023-03-06T15:09:31.959Z,20.40
2023-03-06T15:12:20.967Z,12.93
2023-03-06T15:15:06.922Z,13.32
2023-03-06T15:17:53.594Z,17.30
2023-03-06T15:20:41.578Z,13.82
2023-03-06T15:23:36.193Z,19.20
2023-03-06T15:26:33.089Z,10.95
2023-03-06T15:29:23.418Z,22.13
2023-03-06T15:32:15.075Z,17.02
2023-03-06T15:35:29.099Z,20.38
2023-03-06T15:38:45.944Z,20.83
2023-03-06T15:41:37.190Z,18.90
2023-03-06T15:44:24.162Z,28.52
2023-03-06T15:47:11.629Z,14.40
2023-03-06T15:49:58.715Z,26.45
2023-03-06T15:52:45.855Z,16.08
2023-03-06T15:55:32.546Z,16.95
2023-03-06T15:58:24.964Z,19.27
2023-03-06T16:01:16.116Z,18.15
2023-03-06T16:04:02.313Z,20.27
2023-03-06T16:06:48.229Z,21.48
2023-03-06T16:09:34.030Z,18.27
2023-03-06T16:12:21.838Z,20.27
2023-03-06T16:15:20.088Z,17.23
2023-03-06T16:18:06.607Z,19.45
2023-03-06T16:20:52.809Z,13.18
2023-03-06T16:23:39.297Z,21.42
2023-03-06T16:26:33.590Z,15.52
2023-03-06T16:29:23.014Z,18.77
2023-03-06T16:32:10.798Z,15.68
2023-03-06T16:34:56.717Z,18.17
2023-03-06T16:37:42.995Z,19.70
2023-03-06T16:40:38.876Z,15.10
2023-03-06T16:43:24.579Z,19.40
2023-03-06T16:46:20.111Z,24.90
2023-03-06T16:49:06.278Z,18.77
2023-03-06T16:51:52.996Z,17.67
2023-03-06T16:54:39.110Z,12.52
2023-03-06T16:57:25.174Z,9.27
2023-03-06T17:00:13.665Z,16.45
2023-03-06T17:03:00.940Z,14.30
2023-03-06T17:05:46.677Z,10.95
2023-03-06T17:08:32.494Z,17.25
2023-03-06T17:11:22.135Z,13.27
2023-03-06T17:14:08.023Z,22.85
2023-03-06T17:16:54.157Z,23.35
2023-03-06T17:19:39.864Z,18.55
2023-03-06T17:22:27.411Z,26.42
2023-03-06T17:25:14.210Z,21.52
2023-03-06T17:28:06.276Z,29.73
2023-03-06T17:30:52.732Z,27.15
2023-03-06T17:33:38.990Z,18.67
2023-03-06T17:36:24.961Z,21.15
2023-03-06T17:39:11.770Z,22.33
2023-03-06T17:41:57.823Z,25.17
2023-03-06T17:44:43.755Z,22.98
2023-03-06T17:47:29.789Z,27.30
2023-03-06T17:50:15.796Z,38.95
2023-03-06T17:53:01.746Z,29.50
2023-03-06T17:55:49.295Z,61.83
2023-03-06T17:58:35.844Z,212.10
2023-03-06T18:01:23.728Z,56.28
2023-03-06T18:04:10.697Z,72.63
2023-03-06T18:06:58.480Z,42.10
2023-03-06T18:09:44.591Z,65.60
2023-03-06T18:12:30.341Z,36.40
2023-03-06T18:15:16.302Z,20.73
2023-03-06T18:18:02.402Z,30.67
2023-03-06T18:20:48.398Z,29.65
2023-03-06T18:23:36.155Z,27.58
2023-03-06T18:26:26.722Z,31.17
2023-03-06T18:29:12.893Z,25.10
2023-03-06T18:31:59.430Z,35.67
2023-03-06T18:34:45.557Z,37.80
2023-03-06T18:37:31.679Z,35.30
2023-03-06T18:40:17.700Z,26.15
2023-03-06T18:43:03.708Z,44.60
2023-03-06T18:45:57.109Z,41.60
2023-03-06T18:48:42.848Z,46.45
2023-03-06T18:51:28.888Z,34.55
2023-03-06T18:54:14.498Z,35.28
2023-03-06T18:57:00.460Z,35.95
2023-03-06T18:59:50.111Z,30.80
2023-03-06T19:02:36.328Z,35.65
2023-03-06T19:05:22.262Z,49.65
2023-03-06T19:08:09.228Z,50.75
2023-03-06T19:10:56.486Z,42.95
2023-03-06T19:13:42.565Z,32.33
2023-03-06T19:16:31.372Z,40.63
2023-03-06T19:19:17.364Z,38.72
2023-03-06T19:22:03.114Z,50.63
2023-03-06T19:24:50.174Z,52.65
2023-03-06T19:27:39.271Z,47.80
2023-03-06T19:30:26.015Z,39.40
2023-03-06T19:33:11.884Z,29.17
2023-03-06T19:36:02.329Z,25.92
2023-03-06T19:38:52.868Z,26.85
2023-03-06T19:41:39.260Z,35.20
2023-03-06T19:44:25.396Z,25.85
2023-03-06T19:47:11.451Z,29.98
2023-03-06T19:49:57.536Z,34.10
2023-03-06T19:52:43.629Z,22.20
2023-03-06T19:55:29.827Z,28.45
2023-03-06T19:58:16.109Z,29.58
2023-03-06T20:01:11.386Z,31.60
2023-03-06T20:03:59.096Z,33.30
2023-03-06T20:06:46.771Z,34.97
2023-03-06T20:09:32.980Z,27.65
2023-03-06T20:12:18.854Z,23.58
2023-03-06T20:15:05.021Z,27.52
2023-03-06T20:17:51.105Z,26.63
2023-03-06T20:20:39.241Z,28.33
2023-03-06T20:23:25.296Z,27.77
2023-03-06T20:26:13.768Z,20.50
2023-03-06T20:28:59.838Z,22.38
2023-03-06T20:31:46.032Z,29.35
2023-03-06T20:34:32.882Z,24.92
2023-03-06T20:37:18.890Z,28.00
2023-03-06T20:40:05.695Z,21.02
2023-03-06T20:42:51.649Z,21.25
2023-03-06T20:45:37.439Z,27.42
2023-03-06T20:48:23.412Z,16.80
2023-03-06T20:51:16.873Z,21.85
2023-03-06T20:54:03.359Z,25.67
2023-03-06T20:56:50.350Z,27.38
2023-03-06T20:59:36.627Z,24.98
2023-03-06T21:02:22.806Z,24.80
2023-03-06T21:05:09.088Z,25.55
2023-03-06T21:07:58.107Z,29.50
2023-03-06T21:10:47.634Z,24.77
2023-03-06T21:13:33.761Z,24.95
2023-03-06T21:16:21.138Z,26.67
2023-03-06T21:19:07.146Z,16.38
2023-03-06T21:21:53.599Z,16.77
2023-03-06T21:24:39.829Z,13.68
2023-03-06T21:27:25.920Z,13.68
2023-03-06T21:30:12.227Z,8.60
2023-03-06T21:32:58.316Z,7.63
2023-03-06T21:35:45.149Z,11.57
2023-03-06T21:38:31.526Z,14.10
2023-03-06T21:41:28.689Z,11.48
2023-03-06T21:44:14.545Z,12.02
2023-03-06T21:47:01.317Z,12.70
2023-03-06T21:49:49.179Z,10.88
2023-03-06T21:52:36.905Z,9.10
2023-03-06T21:55:23.056Z,10.50
2023-03-06T21:58:10.198Z,6.72
2023-03-06T22:00:56.819Z,12.63
2023-03-06T22:03:42.493Z,11.15
2023-03-06T22:06:29.999Z,8.05
2023-03-06T22:09:19.033Z,12.50
2023-03-06T22:12:06.242Z,23.77
2023-03-06T22:14:52.074Z,13.13
2023-03-06T22:17:39.758Z,13.48
2023-03-06T22:20:25.697Z,24.95
2023-03-06T22:23:12.606Z,16.05
2023-03-06T22:26:02.674Z,18.83
2023-03-06T22:28:48.520Z,21.35
2023-03-06T22:31:34.377Z,15.05
2023-03-06T22:34:20.522Z,15.35
2023-03-06T22:37:06.204Z,6.75
2023-03-06T22:39:52.057Z,6.82
2023-03-06T22:42:37.788Z,8.80
2023-03-06T22:45:24.704Z,9.65
2023-03-06T22:48:11.286Z,10.95
2023-03-06T22:51:02.670Z,11.95
2023-03-06T22:53:48.908Z,9.82
2023-03-06T22:56:35.406Z,9.45
2023-03-06T22:59:21.447Z,7.72
2023-03-06T23:02:08.166Z,7.32
2023-03-06T23:04:54.087Z,6.57
2023-03-06T23:07:39.862Z,7.20
2023-03-06T23:10:25.920Z,4.78
2023-03-06T23:13:30.412Z,7.05
2023-03-06T23:16:35.510Z,5.28
2023-03-06T23:19:40.791Z,3.47
2023-03-06T23:22:45.666Z,5.90
2023-03-06T23:25:50.806Z,3.70
2023-03-06T23:28:36.680Z,2.92
2023-03-06T23:31:28.695Z,5.13
2023-03-06T23:34:14.407Z,4.65
2023-03-06T23:37:00.065Z,7.28
2023-03-06T23:39:46.253Z,5.30
2023-03-06T23:42:33.259Z,8.65
2023-03-06T23:45:18.900Z,5.75
2023-03-06T23:48:07.390Z,4.93
2023-03-06T23:50:53.411Z,7.45
2023-03-06T23:53:39.742Z,4.22
2023-03-06T23:56:26.933Z,4.43
2023-03-06T23:59:12.998Z,5.30
